Time;durP1;ratioP1;P1;durP2;ratioP2;P2;SDS_P1;SDS_P2;PMS_P1;PMS_P2;Temp;Humidity;BMP_temperature;BMP_pressure;BME280_temperature;BME280_humidity;BME280_pressure;Samples;Min_cycle;Max_cycle;Signal;HPM_P1;HPM_P2
2023/08/22 00:02:38;;;;;;;5.40;1.43;;;;;;;19.80;79.66;101407.91;6121764;28;20039;-66
2023/08/22 00:05:33;;;;;;;8.20;1.90;;;;;;;19.89;79.53;101385.25;6120641;28;20032;-66
2023/08/22 00:08:28;;;;;;;6.23;1.50;;;;;;;20.01;80.83;101411.47;6126039;28;20059;-66
2023/08/22 00:11:24;;;;;;;2.40;1.40;;;;;;;19.95;81.56;101411.38;6125971;28;20033;-66
2023/08/22 00:14:19;;;;;;;6.23;1.53;;;;;;;19.87;80.28;101393.50;6131004;28;20028;-65
2023/08/22 00:17:14;;;;;;;4.67;1.30;;;;;;;19.83;79.18;101392.22;6126051;28;20027;-66
2023/08/22 00:20:11;;;;;;;4.90;1.70;;;;;;;19.84;79.77;101388.47;6126294;28;20479;-66
2023/08/22 00:23:06;;;;;;;4.05;1.50;;;;;;;19.70;80.14;101386.69;6126215;28;20043;-67
2023/08/22 00:26:01;;;;;;;5.47;1.30;;;;;;;19.49;80.85;101365.06;6125085;28;20036;-66
2023/08/22 00:28:57;;;;;;;3.10;1.70;;;;;;;19.45;81.29;101378.09;6125994;28;20044;-66
2023/08/22 00:31:52;;;;;;;6.07;1.70;;;;;;;19.50;81.03;101374.81;6126316;28;20055;-66
2023/08/22 00:34:48;;;;;;;3.30;1.20;;;;;;;19.76;80.97;101380.53;6125029;28;20088;-66
2023/08/22 00:37:44;;;;;;;4.75;1.42;;;;;;;19.78;80.15;101377.66;6125460;28;20051;-67
2023/08/22 00:40:39;;;;;;;6.40;1.50;;;;;;;19.73;80.37;101353.97;6143026;28;20044;-66
2023/08/22 00:43:35;;;;;;;2.53;1.30;;;;;;;19.78;79.95;101351.56;6149818;28;20040;-66
2023/08/22 00:46:30;;;;;;;3.37;1.50;;;;;;;19.83;80.21;101349.16;6138781;28;20569;-66
2023/08/22 00:49:25;;;;;;;6.65;1.65;;;;;;;19.74;80.33;101344.88;6124303;28;20044;-66
2023/08/22 00:52:21;;;;;;;2.33;1.20;;;;;;;19.77;82.45;101347.22;6125731;28;20090;-66
2023/08/22 00:55:17;;;;;;;3.45;1.13;;;;;;;19.87;80.91;101361.19;6124209;28;20028;-66
2023/08/22 00:58:14;;;;;;;3.20;1.42;;;;;;;19.77;81.55;101349.91;6125515;28;20078;-66
2023/08/22 01:01:09;;;;;;;5.45;1.65;;;;;;;19.79;81.23;101372.06;6125601;28;20064;-67
2023/08/22 01:04:04;;;;;;;6.00;1.90;;;;;;;19.80;82.66;101354.06;6124365;28;20040;-66
2023/08/22 01:07:20;;;;;;;5.07;1.40;;;;;;;19.84;80.72;101356.19;6125237;28;20032;-66
2023/08/22 01:10:37;;;;;;;4.20;1.25;;;;;;;19.98;81.18;101379.53;6121626;28;20286;-67
2023/08/22 01:13:35;;;;;;;6.07;1.38;;;;;;;19.89;81.24;101371.78;6156741;28;20760;-66
2023/08/22 01:16:30;;;;;;;4.88;1.60;;;;;;;19.95;83.13;101374.53;6122785;28;20036;-66
2023/08/22 01:19:26;;;;;;;7.18;1.55;;;;;;;19.74;81.87;101357.50;6137887;28;20051;-66
2023/08/22 01:22:25;;;;;;;3.08;1.25;;;;;;;19.75;80.79;101365.41;6128958;28;20031;-66
2023/08/22 01:25:20;;;;;;;6.43;1.42;;;;;;;19.65;81.63;101364.84;6124500;28;20112;-66
2023/08/22 01:28:27;;;;;;;5.63;1.30;;;;;;;19.70;82.84;101393.91;6124376;28;20093;-66
2023/08/22 01:31:32;;;;;;;5.18;1.63;;;;;;;19.66;84.30;101377.31;6121685;28;20033;-66
2023/08/22 01:34:32;;;;;;;2.88;1.20;;;;;;;19.56;83.37;101376.78;6128432;28;20383;-66
2023/08/22 01:37:30;;;;;;;2.33;1.30;;;;;;;19.47;84.14;101367.13;6129715;28;20087;-66
2023/08/22 01:40:25;;;;;;;2.05;1.35;;;;;;;19.33;83.02;101346.41;6134087;28;20165;-66
2023/08/22 01:43:21;;;;;;;3.58;1.40;;;;;;;19.57;84.86;101365.81;6122643;28;20041;-66
2023/08/22 01:46:16;;;;;;;4.10;1.45;;;;;;;19.49;83.21;101347.09;6121938;28;20430;-67
2023/08/22 01:49:12;;;;;;;3.92;1.25;;;;;;;19.41;83.04;101346.34;6122035;28;20056;-66
2023/08/22 01:52:07;;;;;;;6.07;1.70;;;;;;;19.42;82.33;101350.72;6123701;28;20032;-66
2023/08/22 01:55:03;;;;;;;6.07;1.50;;;;;;;19.25;82.24;101327.69;6123407;28;20032;-66
2023/08/22 01:57:58;;;;;;;4.32;1.48;;;;;;;19.12;83.11;101316.78;6123858;28;20028;-67
2023/08/22 02:00:54;;;;;;;4.67;1.60;;;;;;;19.18;83.64;101321.41;6124495;28;20109;-66
2023/08/22 02:03:49;;;;;;;3.47;1.40;;;;;;;19.29;82.32;101329.00;6123325;28;20025;-66
2023/08/22 02:06:46;;;;;;;2.28;1.33;;;;;;;19.17;82.35;101320.56;6123670;28;20035;-67
2023/08/22 02:09:41;;;;;;;4.25;1.40;;;;;;;19.21;82.84;101316.50;6123984;28;20085;-66
2023/08/22 02:12:36;;;;;;;5.00;2.10;;;;;;;19.45;82.80;101331.50;6128045;28;20040;-66
2023/08/22 02:15:32;;;;;;;3.53;1.50;;;;;;;19.46;81.23;101320.56;6123003;28;20484;-66
2023/08/22 02:18:27;;;;;;;4.05;1.40;;;;;;;19.39;81.29;101325.03;6122977;28;20040;-65
2023/08/22 02:21:22;;;;;;;4.33;1.50;;;;;;;19.51;81.63;101330.78;6123575;28;20036;-66
2023/08/22 02:24:18;;;;;;;5.63;1.57;;;;;;;19.34;81.49;101303.22;6123412;28;20483;-66
2023/08/22 02:27:13;;;;;;;3.07;1.57;;;;;;;19.51;81.10;101326.19;6123170;28;20543;-66
2023/08/22 02:30:10;;;;;;;3.27;1.60;;;;;;;19.43;81.30;101310.16;6122705;28;20041;-67
2023/08/22 02:33:05;;;;;;;7.03;1.45;;;;;;;19.43;82.17;101310.16;6123087;28;20032;-66
2023/08/22 02:36:00;;;;;;;5.00;1.53;;;;;;;19.35;82.02;101314.81;6122786;28;20078;-66
2023/08/22 02:38:55;;;;;;;3.07;1.40;;;;;;;19.33;81.95;101282.69;6125474;28;20263;-66
2023/08/22 02:41:51;;;;;;;4.93;1.50;;;;;;;19.35;82.15;101285.22;6147429;28;20672;-65
2023/08/22 02:44:46;;;;;;;4.57;1.53;;;;;;;19.31;82.33;101267.78;6147021;28;20034;-66
2023/08/22 02:47:42;;;;;;;5.27;1.53;;;;;;;19.34;81.64;101284.38;6126738;28;20037;-66
2023/08/22 02:50:37;;;;;;;6.20;1.75;;;;;;;19.28;81.42;101274.38;6122708;28;20111;-67
2023/08/22 02:53:32;;;;;;;3.60;1.77;;;;;;;19.33;81.47;101271.94;6124674;28;20776;-66
2023/08/22 02:56:27;;;;;;;5.53;1.63;;;;;;;19.55;81.92;101297.06;6123680;28;20036;-65
2023/08/22 02:59:23;;;;;;;2.83;1.40;;;;;;;19.52;82.11;101283.97;6122913;28;20025;-67
2023/08/22 03:02:18;;;;;;;7.50;2.70;;;;;;;19.22;81.48;101263.53;6122339;28;20335;-66
2023/08/22 03:05:13;;;;;;;8.83;2.93;;;;;;;19.32;82.15;101270.25;6122041;28;20033;-67
2023/08/22 03:08:09;;;;;;;8.13;2.60;;;;;;;19.33;81.77;101271.09;6122257;28;20289;-65
2023/08/22 03:11:04;;;;;;;4.13;1.87;;;;;;;19.51;81.64;101295.78;6126311;28;20540;-65
2023/08/22 03:13:59;;;;;;;4.53;1.67;;;;;;;19.38;81.59;101276.78;6121802;28;20029;-66
2023/08/22 03:16:55;;;;;;;3.63;1.63;;;;;;;19.42;82.36;101275.41;6124767;28;20020;-65
2023/08/22 03:19:50;;;;;;;3.30;1.70;;;;;;;19.44;81.46;101262.56;6122321;28;20037;-66
2023/08/22 03:22:45;;;;;;;3.90;1.43;;;;;;;19.47;82.05;101254.97;6122241;28;20494;-66
2023/08/22 03:25:40;;;;;;;2.87;1.60;;;;;;;19.57;80.78;101273.47;6121488;28;20020;-66
2023/08/22 03:28:36;;;;;;;5.47;1.83;;;;;;;19.58;81.68;101259.84;6122344;28;20060;-66
2023/08/22 03:31:31;;;;;;;4.85;1.92;;;;;;;19.69;84.05;101271.97;6121609;28;20654;-66
2023/08/22 03:34:27;;;;;;;5.63;1.80;;;;;;;19.70;82.36;101267.41;6121600;28;20028;-66
2023/08/22 03:37:22;;;;;;;5.93;2.20;;;;;;;19.64;81.47;101269.00;6121702;28;20059;-66
2023/08/22 03:40:17;;;;;;;4.00;1.70;;;;;;;19.75;83.46;101265.81;6121608;28;20490;-65
2023/08/22 03:43:13;;;;;;;3.83;2.00;;;;;;;19.80;82.24;101268.75;6121351;28;20028;-66
2023/08/22 03:46:08;;;;;;;5.15;1.95;;;;;;;19.78;80.64;101267.28;6120805;28;20040;-66
2023/08/22 03:49:03;;;;;;;7.03;1.70;;;;;;;19.65;80.49;101245.63;6122048;28;20476;-66
2023/08/22 03:51:59;;;;;;;4.33;1.93;;;;;;;19.77;80.57;101279.91;6121963;28;20313;-66
2023/08/22 03:54:54;;;;;;;3.50;1.70;;;;;;;19.71;80.67;101279.84;6121035;28;20373;-66
2023/08/22 03:57:49;;;;;;;4.30;2.27;;;;;;;19.64;80.56;101269.00;6121797;28;20055;-66
2023/08/22 04:00:45;;;;;;;7.03;2.23;;;;;;;19.79;80.50;101277.84;6121602;28;20187;-66
2023/08/22 04:03:40;;;;;;;6.27;2.00;;;;;;;19.71;81.82;101274.44;6128061;28;20023;-66
2023/08/22 04:06:35;;;;;;;5.13;1.70;;;;;;;19.73;83.34;101275.91;6146044;28;20040;-66
2023/08/22 04:09:30;;;;;;;3.63;1.63;;;;;;;19.89;81.20;101278.38;6120508;28;20037;-66
2023/08/22 04:12:26;;;;;;;4.60;1.50;;;;;;;19.78;80.18;101259.22;6121818;28;20082;-66
2023/08/22 04:15:21;;;;;;;4.10;1.63;;;;;;;19.70;79.74;101264.72;6120723;28;20032;-66
2023/08/22 04:18:16;;;;;;;3.33;1.47;;;;;;;19.63;80.75;101261.97;6128288;28;20411;-66
2023/08/22 04:21:12;;;;;;;5.77;1.63;;;;;;;19.54;81.40;101255.84;6121486;28;20395;-66
2023/08/22 04:24:09;;;;;;;5.47;1.50;;;;;;;19.63;81.84;101272.72;6120036;28;20514;-66
2023/08/22 04:27:04;;;;;;;4.07;1.63;;;;;;;19.67;81.50;101265.94;6120688;28;20025;-66
2023/08/22 04:30:00;;;;;;;3.80;1.77;;;;;;;19.64;81.22;101252.88;6121210;28;20472;-66
2023/08/22 04:32:58;;;;;;;4.80;1.70;;;;;;;19.41;82.12;101236.91;6121416;28;20519;-66
2023/08/22 04:35:53;;;;;;;3.03;1.50;;;;;;;19.55;82.94;101262.09;6119292;28;20032;-66
2023/08/22 04:38:49;;;;;;;4.55;1.70;;;;;;;19.55;83.81;101267.47;6120436;28;20051;-66
2023/08/22 04:41:44;;;;;;;6.45;2.15;;;;;;;19.69;83.09;101265.75;6121283;28;20047;-66
2023/08/22 04:44:40;;;;;;;6.07;1.60;;;;;;;19.62;81.89;101248.72;6120311;28;20047;-66
2023/08/22 04:47:35;;;;;;;4.28;1.70;;;;;;;19.79;81.79;101271.63;6120674;28;20036;-66
2023/08/22 04:50:30;;;;;;;3.00;1.17;;;;;;;19.73;82.39;101267.84;6121088;28;20032;-66
2023/08/22 04:53:28;;;;;;;4.00;1.47;;;;;;;19.76;79.55;101240.56;6124462;28;20040;-66
2023/08/22 04:56:23;;;;;;;5.55;1.65;;;;;;;19.94;79.77;101259.78;6125324;28;20044;-66
2023/08/22 04:59:18;;;;;;;3.50;1.80;;;;;;;19.84;79.27;101259.25;6124666;28;20036;-66
2023/08/22 05:02:14;;;;;;;5.80;1.63;;;;;;;19.79;79.68;101253.63;6125572;28;20071;-66
2023/08/22 05:05:10;;;;;;;4.53;1.60;;;;;;;20.06;79.99;101273.53;6135491;28;20032;-66
2023/08/22 05:08:05;;;;;;;2.45;1.30;;;;;;;20.09;80.64;101274.00;6139684;28;20116;-66
2023/08/22 05:11:00;;;;;;;3.88;1.90;;;;;;;20.08;79.49;101261.53;6125039;28;20120;-66
2023/08/22 05:13:56;;;;;;;3.67;1.90;;;;;;;20.07;78.98;101259.91;6124391;28;20043;-66
2023/08/22 05:16:52;;;;;;;2.70;1.30;;;;;;;20.12;80.18;101252.06;6125293;28;20361;-65
2023/08/22 05:19:47;;;;;;;3.42;1.70;;;;;;;20.10;80.71;101274.84;6108673;28;20081;-66
2023/08/22 05:22:43;;;;;;;3.57;1.37;;;;;;;20.04;81.07;101271.06;6125000;28;20419;-66
2023/08/22 05:25:38;;;;;;;4.10;1.37;;;;;;;19.92;83.65;101245.66;6125516;28;20557;-66
2023/08/22 05:28:33;;;;;;;3.07;1.80;;;;;;;20.11;81.98;101258.47;6123696;28;20495;-65
2023/08/22 05:31:29;;;;;;;5.43;1.73;;;;;;;20.16;79.36;101252.53;6124906;28;20057;-65
2023/08/22 05:34:24;;;;;;;5.30;1.40;;;;;;;20.15;79.52;101267.00;6124144;28;20138;-65
2023/08/22 05:37:19;;;;;;;3.63;1.47;;;;;;;20.28;79.19;101260.91;6123342;28;20025;-65
2023/08/22 05:40:15;;;;;;;5.63;1.60;;;;;;;20.15;78.91;101251.69;6114011;28;20055;-65
2023/08/22 05:43:10;;;;;;;2.85;1.85;;;;;;;20.40;80.51;101275.53;6124433;28;20036;-65
2023/08/22 05:46:05;;;;;;;7.07;1.93;;;;;;;20.19;80.66;101258.31;6127970;28;20040;-66
2023/08/22 05:49:00;;;;;;;5.20;1.90;;;;;;;20.25;80.36;101267.53;6114123;28;20039;-66
2023/08/22 05:52:04;;;;;;;5.23;1.50;;;;;;;20.11;81.53;101246.88;6124150;28;20033;-67
2023/08/22 05:54:59;;;;;;;4.78;2.00;;;;;;;20.39;81.01;101260.38;6123562;28;20487;-66
2023/08/22 05:57:54;;;;;;;6.45;1.90;;;;;;;20.38;80.26;101273.03;6122908;28;20039;-66
2023/08/22 06:00:50;;;;;;;8.03;1.67;;;;;;;20.52;77.03;101265.88;6124621;28;20044;-66
2023/08/22 06:03:45;;;;;;;6.22;1.70;;;;;;;20.79;76.66;101278.44;6122827;28;20036;-66
2023/08/22 06:06:40;;;;;;;4.03;1.80;;;;;;;20.75;80.44;101285.28;6123876;28;20522;-66
2023/08/22 06:09:36;;;;;;;6.80;1.80;;;;;;;20.62;82.88;101293.31;6122512;28;20298;-66
2023/08/22 06:12:31;;;;;;;3.33;1.50;;;;;;;20.42;85.26;101278.84;6123290;28;20055;-66
2023/08/22 06:15:26;;;;;;;3.70;1.93;;;;;;;20.49;84.72;101275.16;6125263;28;20036;-66
2023/08/22 06:18:21;;;;;;;3.00;1.50;;;;;;;20.54;86.18;101277.28;6138582;28;20123;-66
2023/08/22 06:21:17;;;;;;;7.00;1.77;;;;;;;20.85;86.43;101284.91;6123117;28;20028;-66
2023/08/22 06:24:12;;;;;;;4.80;1.80;;;;;;;20.72;84.69;101291.06;6122411;28;20067;-66
2023/08/22 06:27:07;;;;;;;4.53;1.40;;;;;;;20.90;81.63;101272.50;6122767;28;20499;-66
2023/08/22 06:30:04;;;;;;;5.03;1.60;;;;;;;20.66;81.59;101254.13;6122789;28;20044;-66
2023/08/22 06:33:00;;;;;;;3.95;1.75;;;;;;;20.62;83.74;101263.66;6122655;28;20266;-66
2023/08/22 06:35:55;;;;;;;4.20;1.60;;;;;;;20.57;82.15;101271.50;6121845;28;20051;-66
2023/08/22 06:38:52;;;;;;;3.27;1.77;;;;;;;20.63;82.74;101259.91;6121368;28;20044;-67
2023/08/22 06:41:47;;;;;;;6.97;1.70;;;;;;;20.89;81.00;101259.25;6122269;28;20086;-66
2023/08/22 06:44:42;;;;;;;3.90;1.50;;;;;;;20.74;80.08;101262.88;6120697;28;20028;-66
2023/08/22 06:47:38;;;;;;;3.70;1.60;;;;;;;20.57;80.17;101245.34;6118473;28;20082;-66
2023/08/22 06:50:33;;;;;;;3.28;1.52;;;;;;;20.45;80.47;101241.56;6121550;28;20377;-66
2023/08/22 06:53:29;;;;;;;3.75;1.40;;;;;;;21.48;76.83;101257.63;6120756;28;20051;-66
2023/08/22 06:56:25;;;;;;;7.72;1.60;;;;;;;22.08;72.28;101263.97;6121854;28;20040;-66
2023/08/22 06:59:20;;;;;;;7.60;2.00;;;;;;;21.32;75.02;101255.28;6121221;28;20123;-66
2023/08/22 07:02:16;;;;;;;4.43;1.67;;;;;;;22.55;71.75;101266.44;6125506;28;20492;-66
2023/08/22 07:05:13;;;;;;;5.70;1.70;;;;;;;22.72;66.85;101247.94;6121361;28;20040;-66
2023/08/22 07:08:08;;;;;;;4.97;1.60;;;;;;;24.17;58.24;101246.09;6120936;28;20031;-66
2023/08/22 07:11:04;;;;;;;6.73;1.73;;;;;;;24.62;57.67;101252.94;6121543;28;20020;-67
2023/08/22 07:13:59;;;;;;;6.97;2.03;;;;;;;25.38;55.76;101275.03;6120879;28;20380;-66
2023/08/22 07:16:54;;;;;;;10.63;2.00;;;;;;;25.90;53.86;101270.75;6122082;28;20032;-66
2023/08/22 07:19:49;;;;;;;7.70;1.80;;;;;;;25.64;53.70;101263.00;6124843;28;20032;-66
2023/08/22 07:22:45;;;;;;;5.37;1.97;;;;;;;25.62;53.41;101256.97;6117554;28;20168;-67
2023/08/22 07:25:40;;;;;;;6.63;2.33;;;;;;;25.22;54.81;101275.66;6120441;28;20344;-66
2023/08/22 07:28:35;;;;;;;6.37;2.13;;;;;;;26.13;52.78;101260.97;6115144;28;20044;-66
2023/08/22 07:31:31;;;;;;;11.03;2.60;;;;;;;26.31;51.41;101256.28;6118671;28;20028;-66
2023/08/22 07:34:26;;;;;;;6.23;2.50;;;;;;;26.49;50.92;101264.34;6118967;28;20279;-67
2023/08/22 07:37:22;;;;;;;6.70;2.63;;;;;;;26.66;50.60;101267.19;6120100;28;20071;-67
2023/08/22 07:40:18;;;;;;;11.82;3.30;;;;;;;26.47;50.89;101279.25;6114835;28;20078;-67
2023/08/22 07:43:13;;;;;;;8.45;2.45;;;;;;;26.37;51.68;101262.69;6128132;28;20078;-67
2023/08/22 07:46:08;;;;;;;9.17;3.23;;;;;;;26.16;51.16;101280.41;6116858;28;20031;-67
2023/08/22 07:49:04;;;;;;;8.97;3.13;;;;;;;26.12;51.79;101271.03;6119817;28;20058;-67
2023/08/22 07:51:59;;;;;;;7.80;2.77;;;;;;;25.97;51.61;101257.91;6120269;28;20563;-67
2023/08/22 07:54:54;;;;;;;10.03;3.30;;;;;;;25.97;51.99;101273.38;6123447;28;20103;-66
2023/08/22 07:57:50;;;;;;;13.13;3.30;;;;;;;25.92;52.73;101265.94;6122284;28;20101;-66
2023/08/22 08:00:49;;;;;;;9.77;3.70;;;;;;;25.67;53.96;101267.97;6118636;28;20236;-67
2023/08/22 08:03:44;;;;;;;8.05;2.90;;;;;;;26.21;53.94;101255.22;6119863;28;20033;-66
2023/08/22 08:06:39;;;;;;;13.13;3.70;;;;;;;25.98;52.17;101262.25;6125750;28;20047;-65
2023/08/22 08:09:35;;;;;;;8.10;3.17;;;;;;;26.16;53.12;101265.97;6119281;28;20033;-67
2023/08/22 08:12:30;;;;;;;11.47;3.27;;;;;;;26.05;52.15;101273.03;6131507;28;20035;-66
2023/08/22 08:15:25;;;;;;;13.53;3.27;;;;;;;25.99;53.02;101265.81;6117334;28;20293;-66
2023/08/22 08:18:21;;;;;;;6.17;2.70;;;;;;;26.43;50.61;101253.59;6113940;28;20116;-67
2023/08/22 08:21:16;;;;;;;6.33;2.63;;;;;;;26.20;51.81;101251.66;6115615;28;20028;-67
2023/08/22 08:24:11;;;;;;;6.70;2.30;;;;;;;25.84;50.25;101262.72;6119582;28;20107;-67
2023/08/22 08:27:06;;;;;;;9.27;2.83;;;;;;;25.80;51.37;101248.75;6119395;28;20043;-67
2023/08/22 08:30:05;;;;;;;7.37;2.40;;;;;;;26.48;51.30;101256.41;6127560;28;20032;-67
2023/08/22 08:33:03;;;;;;;6.32;2.50;;;;;;;26.70;49.08;101246.56;6121597;28;20443;-66
2023/08/22 08:35:59;;;;;;;8.27;2.13;;;;;;;26.89;49.92;101256.28;6123426;28;20032;-67
2023/08/22 08:38:54;;;;;;;12.53;3.40;;;;;;;26.70;50.47;101245.75;6125583;28;20051;-67
2023/08/22 08:42:06;;;;;;;6.28;2.13;;;;;;;26.03;52.11;101256.97;6124741;28;20278;-66
2023/08/22 08:45:02;;;;;;;5.88;1.88;;;;;;;27.11;48.82;101232.78;6127578;28;20031;-67
2023/08/22 08:47:59;;;;;;;10.07;2.13;;;;;;;27.29;48.36;101244.56;6124719;28;20029;-67
2023/08/22 08:50:55;;;;;;;5.32;1.80;;;;;;;27.26;48.70;101258.69;6118695;28;20107;-67
2023/08/22 08:53:53;;;;;;;7.13;1.75;;;;;;;27.05;49.59;101258.25;6124160;28;20475;-68
2023/08/22 08:56:49;;;;;;;8.52;1.70;;;;;;;26.43;51.50;101250.84;6138295;28;20031;-67
2023/08/22 08:59:44;;;;;;;6.60;1.10;;;;;;;26.57;52.10;101252.28;6128703;28;20533;-66
2023/08/22 09:02:39;;;;;;;4.80;1.67;;;;;;;26.57;51.65;101276.78;6123731;28;20028;-67
2023/08/22 09:05:35;;;;;;;3.80;1.57;;;;;;;27.34;51.57;101258.28;6124439;28;20041;-67
2023/08/22 09:08:30;;;;;;;8.32;1.73;;;;;;;27.43;48.35;101256.84;6127088;28;20127;-67
2023/08/22 09:11:26;;;;;;;5.80;1.90;;;;;;;27.42;48.80;101249.75;6125738;28;20373;-67
2023/08/22 09:14:21;;;;;;;4.03;1.23;;;;;;;28.05;46.88;101261.25;6125313;28;20316;-67
2023/08/22 09:17:17;;;;;;;6.10;1.35;;;;;;;27.70;47.89;101257.91;6124385;28;20037;-66
2023/08/22 09:20:13;;;;;;;3.90;1.95;;;;;;;27.54;48.74;101266.88;6123133;28;20036;-67
2023/08/22 09:23:19;;;;;;;4.32;1.90;;;;;;;27.32;49.32;101272.13;6123802;28;20082;-67
2023/08/22 09:26:19;;;;;;;4.00;1.80;;;;;;;27.27;50.85;101261.16;6131113;28;20037;-68
2023/08/22 09:29:15;;;;;;;6.22;1.88;;;;;;;27.41;49.66;101246.19;6124600;28;20032;-67
2023/08/22 09:32:10;;;;;;;6.07;2.33;;;;;;;27.37;50.05;101260.53;6132673;28;20383;-67
2023/08/22 09:35:06;;;;;;;5.73;1.70;;;;;;;27.54;50.18;101255.97;6123418;28;20055;-67
2023/08/22 09:38:06;;;;;;;11.18;6.65;;;;;;;27.82;50.45;101250.50;6123160;28;20028;-68
2023/08/22 09:41:02;;;;;;;6.95;2.10;;;;;;;28.10;49.58;101257.81;6122569;28;20035;-67
2023/08/22 09:44:00;;;;;;;6.40;2.00;;;;;;;28.60;47.98;101252.28;6122716;28;20025;-67
2023/08/22 09:46:56;;;;;;;7.07;2.30;;;;;;;28.59;48.32;101256.09;6123026;28;20052;-67
2023/08/22 09:49:56;;;;;;;6.18;2.00;;;;;;;28.41;48.13;101253.63;6123342;28;20064;-68
2023/08/22 09:52:51;;;;;;;;;;;;;;;27.87;48.96;101253.28;6123672;28;20043;-67
2023/08/22 09:55:46;;;;;;;4.93;1.57;;;;;;;27.63;50.17;101254.50;6122155;28;19967;-68
2023/08/22 09:58:42;;;;;;;6.60;1.90;;;;;;;27.72;50.48;101255.78;6124491;28;20036;-67
2023/08/22 10:01:39;;;;;;;5.25;1.80;;;;;;;27.60;49.94;101241.38;6121851;28;20040;-68
2023/08/22 10:04:34;;;;;;;6.40;1.98;;;;;;;27.24;50.83;101247.16;6122596;28;20052;-68
2023/08/22 10:07:29;;;;;;;6.70;2.00;;;;;;;27.09;51.06;101243.09;6122927;28;20392;-67
2023/08/22 10:10:25;;;;;;;6.87;2.17;;;;;;;27.15;50.78;101244.84;6121336;28;20068;-68
2023/08/22 10:13:21;;;;;;;7.05;2.35;;;;;;;26.85;51.25;101262.47;6121745;28;20758;-67
2023/08/22 10:16:17;;;;;;;4.82;2.03;;;;;;;26.97;51.49;101258.63;6121974;28;20068;-68
2023/08/22 10:19:14;;;;;;;5.68;1.80;;;;;;;27.23;51.25;101246.38;6121890;28;20115;-67
2023/08/22 10:22:14;;;;;;;4.82;1.77;;;;;;;26.91;49.53;101254.13;6121000;28;20058;-67
2023/08/22 10:25:09;;;;;;;7.28;1.90;;;;;;;26.98;50.71;101251.28;6121689;28;20114;-68
2023/08/22 10:28:05;;;;;;;7.63;2.03;;;;;;;27.45;51.10;101249.28;6120762;28;20032;-68
2023/08/22 10:31:02;;;;;;;13.18;2.45;;;;;;;27.65;49.61;101255.09;6122246;28;20365;-67
2023/08/22 10:34:02;;;;;;;4.07;1.58;;;;;;;27.83;48.67;101256.78;6123057;28;20411;-68
2023/08/22 10:37:02;;;;;;;6.07;1.95;;;;;;;27.65;47.70;101255.91;6121693;28;20025;-67
2023/08/22 10:39:59;;;;;;;5.57;2.00;;;;;;;26.83;50.48;101262.69;6121435;28;20480;-67
2023/08/22 10:43:11;;;;;;;4.97;1.50;;;;;;;26.47;50.90;101269.19;6121022;28;20039;-67
2023/08/22 10:46:06;;;;;;;6.93;1.80;;;;;;;26.29;51.05;101257.59;6121550;28;20033;-66
2023/08/22 10:49:02;;;;;;;3.60;1.73;;;;;;;26.51;50.66;101258.66;6121739;28;20078;-68
2023/08/22 10:52:07;;;;;;;5.93;2.13;;;;;;;27.23;49.45;101259.16;6122859;28;20082;-68
2023/08/22 10:55:03;;;;;;;5.32;2.00;;;;;;;27.07;48.81;101268.88;6126079;28;20041;-67
2023/08/22 10:58:02;;;;;;;5.13;1.97;;;;;;;27.22;46.83;101241.16;6126486;28;20055;-67
2023/08/22 11:00:58;;;;;;;4.80;1.98;;;;;;;27.25;48.72;101246.13;6121950;28;20369;-67
2023/08/22 11:03:55;;;;;;;5.03;1.83;;;;;;;27.14;47.94;101261.44;6122093;28;20041;-67
2023/08/22 11:06:51;;;;;;;9.38;1.98;;;;;;;27.09;47.88;101273.06;6119089;28;20028;-67
2023/08/22 11:09:48;;;;;;;4.78;1.90;;;;;;;26.95;47.34;101263.50;6119848;28;20064;-68
2023/08/22 11:12:43;;;;;;;6.68;2.00;;;;;;;27.11;47.95;101254.56;6119347;28;20194;-67
2023/08/22 11:15:39;;;;;;;8.02;2.25;;;;;;;27.14;48.96;101256.81;6118577;28;20086;-67
2023/08/22 11:18:35;;;;;;;9.52;2.38;;;;;;;26.74;49.21;101258.66;6122101;28;20394;-67
2023/08/22 11:21:30;;;;;;;4.43;1.80;;;;;;;26.81;50.17;101264.81;6119608;28;20032;-68
2023/08/22 11:24:27;;;;;;;5.30;2.20;;;;;;;26.36;49.47;101237.38;6118690;28;20098;-67
2023/08/22 11:27:23;;;;;;;7.00;2.30;;;;;;;26.39;49.01;101245.06;6119499;28;20041;-67
2023/08/22 11:30:19;;;;;;;5.07;2.07;;;;;;;26.40;50.24;101241.28;6120898;28;20395;-68
2023/08/22 11:33:19;;;;;;;4.78;2.00;;;;;;;26.41;51.26;101236.69;6120698;28;20111;-67
2023/08/22 11:36:15;;;;;;;7.00;1.60;;;;;;;26.33;50.48;101253.34;6121411;28;20086;-67
2023/08/22 11:39:11;;;;;;;8.00;2.35;;;;;;;26.30;50.81;101251.09;6120544;28;20492;-67
2023/08/22 11:42:06;;;;;;;9.82;2.40;;;;;;;26.45;51.51;101260.44;6121374;28;20036;-67
2023/08/22 11:45:04;;;;;;;8.13;1.90;;;;;;;26.62;50.08;101263.28;6120144;28;20028;-67
2023/08/22 11:48:00;;;;;;;3.58;1.77;;;;;;;26.20;50.60;101250.88;6122345;28;20289;-67
2023/08/22 11:50:56;;;;;;;10.95;2.10;;;;;;;26.26;50.31;101258.06;6121147;28;20040;-68
2023/08/22 11:53:51;;;;;;;7.40;1.80;;;;;;;26.50;49.36;101257.00;6120571;28;20039;-68
2023/08/22 11:56:47;;;;;;;6.68;2.00;;;;;;;26.51;49.05;101264.09;6123057;28;20032;-67
2023/08/22 11:59:43;;;;;;;4.70;1.77;;;;;;;26.73;49.39;101250.72;6128430;28;20384;-68
2023/08/22 12:02:51;;;;;;;4.55;2.08;;;;;;;26.66;48.17;101250.84;6118667;28;20039;-68
2023/08/22 12:05:49;;;;;;;5.95;2.08;;;;;;;26.60;48.54;101254.53;6117488;28;20127;-68
2023/08/22 12:08:55;;;;;;;5.53;2.20;;;;;;;26.66;47.80;101256.31;6120008;28;20032;-67
2023/08/22 12:11:51;;;;;;;4.05;1.70;;;;;;;26.76;49.58;101270.13;6122792;28;20059;-67
2023/08/22 12:14:47;;;;;;;6.10;1.63;;;;;;;26.59;49.75;101255.59;6120136;28;20044;-67
2023/08/22 12:17:42;;;;;;;6.97;1.80;;;;;;;26.33;50.37;101250.63;6119794;28;20067;-67
2023/08/22 12:20:39;;;;;;;4.77;1.80;;;;;;;26.55;51.37;101265.31;6120404;28;20430;-68
2023/08/22 12:23:35;;;;;;;3.55;1.50;;;;;;;26.21;48.95;101260.66;6118570;28;20040;-68
2023/08/22 12:26:30;;;;;;;2.57;1.30;;;;;;;26.46;48.41;101269.44;6120182;28;20037;-67
2023/08/22 12:29:25;;;;;;;6.10;1.70;;;;;;;26.45;47.59;101267.75;6123797;28;20127;-67
2023/08/22 12:32:20;;;;;;;6.13;1.53;;;;;;;26.45;48.34;101284.09;6119884;28;20479;-68
2023/08/22 12:35:16;;;;;;;5.30;1.70;;;;;;;26.68;46.89;101275.94;6122100;28;20033;-67
2023/08/22 12:38:11;;;;;;;3.07;1.37;;;;;;;26.75;47.58;101284.78;6122068;28;20119;-68
2023/08/22 12:41:07;;;;;;;4.63;1.50;;;;;;;26.89;47.40;101279.94;6120165;28;20367;-67
2023/08/22 12:44:03;;;;;;;5.13;1.55;;;;;;;27.15;46.87;101263.09;6119387;28;20789;-68
2023/08/22 12:46:59;;;;;;;4.53;1.60;;;;;;;27.31;46.06;101275.94;6121891;28;20056;-68
2023/08/22 12:49:54;;;;;;;4.78;1.45;;;;;;;27.45;44.58;101276.53;6120108;28;20290;-68
2023/08/22 12:52:50;;;;;;;9.37;2.10;;;;;;;27.83;45.73;101273.94;6119683;28;20041;-68
2023/08/22 12:55:45;;;;;;;8.43;1.90;;;;;;;27.77;45.41;101264.88;6117273;28;20048;-67
2023/08/22 12:58:41;;;;;;;4.50;2.38;;;;;;;27.94;44.62;101242.25;6116950;28;20059;-66
2023/08/22 13:01:36;;;;;;;4.63;1.50;;;;;;;27.84;43.82;101248.34;6116646;28;20111;-67
2023/08/22 13:04:31;;;;;;;6.90;1.37;;;;;;;28.00;42.83;101269.34;6115554;28;20047;-68
2023/08/22 13:07:26;;;;;;;9.83;1.50;;;;;;;27.84;40.75;101251.06;6116129;28;20033;-67
2023/08/22 13:10:22;;;;;;;3.60;1.10;;;;;;;27.98;39.41;101266.03;6116673;28;20093;-68
2023/08/22 13:13:17;;;;;;;8.80;2.10;;;;;;;28.17;39.78;101259.28;6116233;28;20479;-67
2023/08/22 13:16:12;;;;;;;2.77;1.07;;;;;;;28.75;39.75;101250.63;6119743;28;20033;-67
2023/08/22 13:19:08;;;;;;;5.60;1.50;;;;;;;28.90;39.07;101252.72;6120488;28;20056;-67
2023/08/22 13:22:04;;;;;;;5.30;1.65;;;;;;;28.51;39.34;101259.25;6120886;28;20040;-68
2023/08/22 13:24:59;;;;;;;5.93;1.63;;;;;;;27.93;40.88;101248.75;6120401;28;20071;-67
2023/08/22 13:27:55;;;;;;;6.23;1.50;;;;;;;28.29;41.25;101260.00;6121036;28;20029;-67
2023/08/22 13:30:50;;;;;;;4.23;1.20;;;;;;;28.19;40.38;101256.31;6124189;28;20028;-68
2023/08/22 13:33:45;;;;;;;2.33;1.20;;;;;;;28.27;39.02;101253.16;6123905;28;20613;-68
2023/08/22 13:36:41;;;;;;;3.67;1.02;;;;;;;28.29;39.31;101251.81;6127865;28;20037;-68
2023/08/22 13:39:36;;;;;;;4.40;1.15;;;;;;;28.51;39.83;101230.03;6119280;28;20402;-68